createdAt,value
2019-03-28T00:00:30.470Z,4.45
2019-03-28T00:01:35.505Z,3.67
2019-03-28T00:02:40.337Z,4.10
2019-03-28T00:03:45.188Z,4.00
2019-03-28T00:04:50.120Z,3.37
2019-03-28T00:05:54.861Z,4.42
2019-03-28T00:06:59.683Z,4.08
2019-03-28T00:08:04.545Z,4.45
2019-03-28T00:09:09.601Z,4.65
2019-03-28T00:10:14.433Z,4.40
2019-03-28T00:11:19.246Z,3.85
2019-03-28T00:12:24.041Z,4.37
2019-03-28T00:13:28.938Z,4.37
2019-03-28T00:14:33.738Z,4.30
2019-03-28T00:15:38.508Z,5.28
2019-03-28T00:16:43.337Z,4.62
2019-03-28T00:17:48.127Z,4.85
2019-03-28T00:18:53.223Z,4.45
2019-03-28T00:19:58.224Z,4.30
2019-03-28T00:21:02.987Z,4.47
2019-03-28T00:22:07.880Z,3.55
2019-03-28T00:23:27.153Z,4.00
2019-03-28T00:24:45.865Z,4.70
2019-03-28T00:25:50.807Z,4.28
2019-03-28T00:26:55.523Z,5.03
2019-03-28T00:28:00.345Z,4.75
2019-03-28T00:29:05.255Z,5.50
2019-03-28T00:30:10.193Z,4.65
2019-03-28T00:31:15.109Z,5.28
2019-03-28T00:32:20.089Z,4.90
2019-03-28T00:33:24.997Z,5.65
2019-03-28T00:34:29.894Z,4.70
2019-03-28T00:35:34.616Z,4.83
2019-03-28T00:36:39.323Z,5.35
2019-03-28T00:37:44.041Z,5.25
2019-03-28T00:38:48.831Z,4.60
2019-03-28T00:39:53.615Z,5.40
2019-03-28T00:40:58.427Z,4.42
2019-03-28T00:42:03.230Z,4.95
2019-03-28T00:43:08.013Z,4.72
2019-03-28T00:44:13.033Z,4.47
2019-03-28T00:45:18.084Z,5.35
2019-03-28T00:46:22.931Z,4.80
2019-03-28T00:47:27.620Z,4.92
2019-03-28T00:48:32.403Z,4.70
2019-03-28T00:49:37.173Z,4.85
2019-03-28T00:50:42.075Z,4.90
2019-03-28T00:51:46.978Z,4.40
2019-03-28T00:52:51.769Z,5.62
2019-03-28T00:53:56.684Z,5.20
2019-03-28T00:55:01.549Z,4.92
2019-03-28T00:56:06.586Z,5.45
2019-03-28T00:57:11.801Z,4.60
2019-03-28T00:58:16.487Z,5.08
2019-03-28T00:59:21.299Z,4.33
2019-03-28T01:00:26.282Z,4.15
2019-03-28T01:01:31.176Z,5.25
2019-03-28T01:02:35.913Z,4.35
2019-03-28T01:03:40.601Z,5.87
2019-03-28T01:04:45.327Z,4.53
2019-03-28T01:05:50.109Z,4.65
2019-03-28T01:06:55.001Z,4.87
2019-03-28T01:07:59.952Z,5.42
2019-03-28T01:09:06.351Z,4.60
2019-03-28T01:10:11.332Z,4.90
2019-03-28T01:11:16.256Z,4.60
2019-03-28T01:12:21.156Z,4.28
2019-03-28T01:13:25.901Z,4.90
2019-03-28T01:14:30.766Z,4.67
2019-03-28T01:15:35.653Z,4.22
2019-03-28T01:16:40.459Z,4.12
2019-03-28T01:17:45.286Z,4.47
2019-03-28T01:18:50.062Z,4.25
2019-03-28T01:19:55.173Z,5.25
2019-03-28T01:21:00.291Z,5.20
2019-03-28T01:22:05.077Z,4.72
2019-03-28T01:23:09.854Z,4.85
2019-03-28T01:24:14.769Z,4.45
2019-03-28T01:25:19.592Z,4.72
2019-03-28T01:26:24.432Z,4.90
2019-03-28T01:27:29.216Z,4.08
2019-03-28T01:28:34.093Z,4.83
2019-03-28T01:29:38.967Z,4.55
2019-03-28T01:30:43.710Z,4.40
2019-03-28T01:31:48.591Z,5.05
2019-03-28T01:32:53.478Z,4.10
2019-03-28T01:33:58.239Z,4.90
2019-03-28T01:35:03.012Z,4.97
2019-03-28T01:36:07.881Z,5.30
2019-03-28T01:37:12.775Z,5.55
2019-03-28T01:38:17.663Z,4.80
2019-03-28T01:39:22.463Z,4.87
2019-03-28T01:40:27.413Z,4.45
2019-03-28T01:41:32.297Z,5.05
2019-03-28T01:42:37.144Z,5.20
2019-03-28T01:43:42.062Z,4.50
2019-03-28T01:44:46.883Z,5.20
2019-03-28T01:45:51.599Z,4.47
2019-03-28T01:46:56.448Z,4.92
2019-03-28T01:48:01.290Z,4.65
2019-03-28T01:49:06.199Z,4.08
2019-03-28T01:50:11.042Z,4.70
2019-03-28T01:51:15.885Z,4.83
2019-03-28T01:52:21.353Z,4.80
2019-03-28T01:53:26.417Z,4.70
2019-03-28T01:54:31.129Z,4.60
2019-03-28T01:55:36.120Z,5.17
2019-03-28T01:56:41.011Z,4.47
2019-03-28T01:57:45.777Z,4.50
2019-03-28T01:58:50.528Z,5.08
2019-03-28T01:59:55.355Z,4.60
2019-03-28T02:01:02.778Z,4.90
2019-03-28T02:02:06.819Z,5.00
2019-03-28T02:03:11.613Z,4.58
2019-03-28T02:04:16.407Z,4.45
2019-03-28T02:05:21.247Z,5.17
2019-03-28T02:06:26.126Z,4.90
2019-03-28T02:07:31.069Z,5.20
2019-03-28T02:08:35.829Z,4.80
2019-03-28T02:09:40.765Z,4.53
2019-03-28T02:10:45.487Z,4.70
2019-03-28T02:11:50.447Z,4.85
2019-03-28T02:12:55.147Z,4.83
2019-03-28T02:13:59.964Z,4.90
2019-03-28T02:15:05.412Z,4.30
2019-03-28T02:16:10.305Z,5.25
2019-03-28T02:17:15.192Z,5.25
2019-03-28T02:18:19.911Z,4.78
2019-03-28T02:19:24.806Z,4.22
2019-03-28T02:20:29.636Z,4.92
2019-03-28T02:21:34.544Z,4.97
2019-03-28T02:22:39.270Z,4.85
2019-03-28T02:23:44.131Z,4.15
2019-03-28T02:24:49.005Z,4.40
2019-03-28T02:25:53.805Z,4.20
2019-03-28T02:26:59.132Z,5.00
2019-03-28T02:28:04.263Z,4.55
2019-03-28T02:29:09.031Z,5.17
2019-03-28T02:30:13.873Z,4.25
2019-03-28T02:31:18.689Z,4.50
2019-03-28T02:32:23.825Z,4.22
2019-03-28T02:33:28.591Z,4.35
2019-03-28T02:34:33.341Z,4.45
2019-03-28T02:35:38.220Z,4.62
2019-03-28T02:36:42.917Z,4.60
2019-03-28T02:37:47.828Z,4.30
2019-03-28T02:38:52.561Z,4.03
2019-03-28T02:39:57.423Z,3.80
2019-03-28T02:41:02.865Z,4.60
2019-03-28T02:42:07.720Z,4.58
2019-03-28T02:43:12.573Z,4.70
2019-03-28T02:44:17.376Z,4.58
2019-03-28T02:45:22.276Z,4.12
2019-03-28T02:46:27.191Z,4.50
2019-03-28T02:47:31.883Z,4.30
2019-03-28T02:48:36.870Z,3.95
2019-03-28T02:49:41.681Z,4.75
2019-03-28T02:50:46.340Z,4.97
2019-03-28T02:51:51.227Z,3.95
2019-03-28T02:52:55.939Z,3.77
2019-03-28T02:54:00.934Z,4.10
2019-03-28T02:55:06.157Z,4.78
2019-03-28T02:56:10.973Z,4.58
2019-03-28T02:57:15.730Z,4.35
2019-03-28T02:58:20.627Z,4.85
2019-03-28T02:59:25.476Z,5.10
2019-03-28T03:00:30.379Z,5.72
2019-03-28T03:01:35.133Z,4.70
2019-03-28T03:02:40.068Z,4.62
2019-03-28T03:03:44.980Z,4.08
2019-03-28T03:04:49.787Z,4.80
2019-03-28T03:05:54.568Z,4.40
2019-03-28T03:06:59.482Z,4.65
2019-03-28T03:08:04.538Z,5.25
2019-03-28T03:09:10.631Z,4.67
2019-03-28T03:10:15.509Z,4.55
2019-03-28T03:11:20.413Z,4.12
2019-03-28T03:12:25.381Z,4.47
2019-03-28T03:13:30.124Z,4.95
2019-03-28T03:14:34.985Z,4.87
2019-03-28T03:15:39.815Z,4.53
2019-03-28T03:16:44.663Z,4.78
2019-03-28T03:17:49.537Z,4.40
2019-03-28T03:18:54.449Z,4.95
2019-03-28T03:19:59.252Z,4.55
2019-03-28T03:21:04.302Z,4.40
2019-03-28T03:22:09.197Z,5.08
2019-03-28T03:23:14.162Z,4.95
2019-03-28T03:24:19.074Z,4.90
2019-03-28T03:25:23.858Z,4.53
2019-03-28T03:26:28.712Z,4.90
2019-03-28T03:27:33.552Z,4.75
2019-03-28T03:28:38.436Z,4.58
2019-03-28T03:29:43.330Z,5.10
2019-03-28T03:30:48.230Z,5.03
2019-03-28T03:31:53.840Z,4.85
2019-03-28T03:32:58.997Z,4.95
2019-03-28T03:34:05.094Z,4.80
2019-03-28T03:35:10.665Z,5.37
2019-03-28T03:36:15.489Z,4.58
2019-03-28T03:37:20.284Z,5.00
2019-03-28T03:38:24.996Z,4.50
2019-03-28T03:39:29.708Z,4.20
2019-03-28T03:40:34.648Z,4.42
2019-03-28T03:41:39.778Z,4.08
2019-03-28T03:42:44.580Z,4.60
2019-03-28T03:43:49.766Z,4.45
2019-03-28T03:44:54.760Z,4.70
2019-03-28T03:45:59.514Z,5.30
2019-03-28T03:47:04.273Z,4.50
2019-03-28T03:48:09.103Z,4.42
2019-03-28T03:49:13.849Z,4.72
2019-03-28T03:50:27.556Z,5.10
2019-03-28T03:51:32.291Z,3.95
2019-03-28T03:52:37.166Z,4.97
2019-03-28T03:53:42.146Z,5.33
2019-03-28T03:54:46.989Z,4.65
2019-03-28T03:55:51.799Z,4.80
2019-03-28T03:56:56.495Z,5.10
2019-03-28T03:58:14.401Z,5.12
2019-03-28T03:59:07.920Z,4.92
2019-03-28T04:00:14.523Z,4.33
2019-03-28T04:01:19.380Z,5.03
2019-03-28T04:02:24.133Z,5.33
2019-03-28T04:03:29.570Z,4.25
2019-03-28T04:04:34.693Z,4.40
2019-03-28T04:05:39.503Z,5.62
2019-03-28T04:06:44.248Z,4.70
2019-03-28T04:07:49.167Z,5.10
2019-03-28T04:08:54.123Z,5.20
2019-03-28T04:09:59.065Z,4.85
2019-03-28T04:11:03.892Z,4.58
2019-03-28T04:12:08.708Z,4.60
2019-03-28T04:13:13.545Z,4.40
2019-03-28T04:14:18.377Z,4.80
2019-03-28T04:15:23.282Z,4.08
2019-03-28T04:16:29.386Z,4.85
2019-03-28T04:17:34.752Z,4.25
2019-03-28T04:18:39.980Z,4.95
2019-03-28T04:19:45.029Z,4.20
2019-03-28T04:20:50.017Z,4.75
2019-03-28T04:21:54.936Z,4.72
2019-03-28T04:22:59.711Z,5.22
2019-03-28T04:24:04.501Z,4.50
2019-03-28T04:25:09.392Z,4.50
2019-03-28T04:26:14.227Z,5.70
2019-03-28T04:27:19.032Z,4.80
2019-03-28T04:28:31.478Z,4.37
2019-03-28T04:29:30.626Z,4.87
2019-03-28T04:30:35.717Z,4.45
2019-03-28T04:31:40.625Z,4.85
2019-03-28T04:32:45.373Z,4.90
2019-03-28T04:33:50.116Z,4.50
2019-03-28T04:34:54.936Z,4.03
2019-03-28T04:36:00.416Z,4.28
2019-03-28T04:37:05.360Z,4.62
2019-03-28T04:38:10.997Z,3.42
2019-03-28T04:39:16.540Z,3.85
2019-03-28T04:40:21.578Z,3.70
2019-03-28T04:41:26.467Z,4.20
2019-03-28T04:42:31.263Z,4.55
2019-03-28T04:43:36.245Z,4.45
2019-03-28T04:44:40.995Z,4.90
2019-03-28T04:45:45.660Z,4.85
2019-03-28T04:46:50.551Z,4.05
2019-03-28T04:47:55.241Z,4.35
2019-03-28T04:48:59.981Z,4.42
2019-03-28T04:50:04.749Z,4.33
2019-03-28T04:51:11.821Z,4.60
2019-03-28T04:52:16.235Z,4.10
2019-03-28T04:53:21.112Z,4.20
2019-03-28T04:54:25.919Z,4.50
2019-03-28T04:55:30.817Z,4.70
2019-03-28T04:56:35.527Z,4.35
2019-03-28T04:57:41.200Z,3.70
2019-03-28T04:58:46.254Z,4.12
2019-03-28T04:59:51.102Z,3.85
2019-03-28T05:00:55.992Z,4.92
2019-03-28T05:02:03.386Z,4.22
2019-03-28T05:03:07.412Z,3.65
2019-03-28T05:04:12.099Z,4.05
2019-03-28T05:05:17.076Z,4.50
2019-03-28T05:06:22.005Z,4.12
2019-03-28T05:07:27.137Z,4.58
2019-03-28T05:08:31.943Z,4.35
2019-03-28T05:09:36.748Z,4.20
2019-03-28T05:10:41.647Z,4.20
2019-03-28T05:11:46.727Z,4.50
2019-03-28T05:12:51.570Z,3.83
2019-03-28T05:13:56.601Z,4.45
2019-03-28T05:15:01.358Z,3.72
2019-03-28T05:16:06.041Z,4.90
2019-03-28T05:17:10.840Z,4.60
2019-03-28T05:18:15.741Z,4.53
2019-03-28T05:19:20.544Z,4.50
2019-03-28T05:20:25.344Z,5.05
2019-03-28T05:21:30.163Z,4.42
2019-03-28T05:22:35.002Z,5.00
2019-03-28T05:23:40.484Z,4.87
2019-03-28T05:24:45.405Z,4.45
2019-03-28T05:25:50.338Z,4.22
2019-03-28T05:26:55.203Z,5.00
2019-03-28T05:28:00.016Z,4.72
2019-03-28T05:29:04.711Z,4.70
2019-03-28T05:30:10.767Z,4.90
2019-03-28T05:31:15.641Z,5.00
2019-03-28T05:32:20.331Z,5.40
2019-03-28T05:33:25.310Z,5.25
2019-03-28T05:34:30.178Z,4.30
2019-03-28T05:35:34.993Z,4.70
2019-03-28T05:36:39.744Z,5.20
2019-03-28T05:37:44.533Z,4.90
2019-03-28T05:38:49.347Z,4.78
2019-03-28T05:39:54.187Z,4.87
2019-03-28T05:40:59.060Z,5.35
2019-03-28T05:42:04.037Z,4.95
2019-03-28T05:43:08.878Z,5.30
2019-03-28T05:44:13.682Z,4.80
2019-03-28T05:45:18.480Z,4.83
2019-03-28T05:46:23.208Z,4.75
2019-03-28T05:47:28.007Z,5.10
2019-03-28T05:48:32.705Z,5.20
2019-03-28T05:49:37.415Z,4.58
2019-03-28T05:50:42.108Z,5.25
2019-03-28T05:51:46.818Z,4.50
2019-03-28T05:52:51.552Z,4.70
2019-03-28T05:53:56.398Z,5.17
2019-03-28T05:55:01.556Z,5.80
2019-03-28T05:56:06.641Z,5.97
2019-03-28T05:57:11.483Z,5.00
2019-03-28T05:58:16.185Z,5.45
2019-03-28T05:59:20.847Z,5.80
2019-03-28T06:00:25.647Z,4.97
2019-03-28T06:01:30.390Z,4.90
2019-03-28T06:02:35.249Z,4.80
2019-03-28T06:03:40.091Z,5.37
2019-03-28T06:04:44.965Z,4.60
2019-03-28T06:05:49.775Z,4.50
2019-03-28T06:06:54.481Z,5.12
2019-03-28T06:07:59.329Z,4.72
2019-03-28T06:09:05.629Z,4.95
2019-03-28T06:10:10.985Z,4.72
2019-03-28T06:11:15.695Z,5.35
2019-03-28T06:12:20.634Z,5.50
2019-03-28T06:13:25.485Z,4.30
2019-03-28T06:14:30.254Z,5.90
2019-03-28T06:15:35.085Z,6.28
2019-03-28T06:16:39.969Z,6.87
2019-03-28T06:17:44.872Z,5.83
2019-03-28T06:18:49.671Z,5.70
2019-03-28T06:19:54.425Z,5.17
2019-03-28T06:20:59.611Z,5.45
2019-03-28T06:22:04.708Z,5.05
2019-03-28T06:23:09.553Z,4.53
2019-03-28T06:24:14.281Z,5.92
2019-03-28T06:25:19.154Z,6.03
2019-03-28T06:26:23.899Z,5.87
2019-03-28T06:27:28.671Z,6.72
2019-03-28T06:28:33.477Z,5.90
2019-03-28T06:29:38.360Z,6.37
2019-03-28T06:30:43.073Z,4.87
2019-03-28T06:31:55.070Z,4.95
2019-03-28T06:32:54.418Z,5.22
2019-03-28T06:33:59.291Z,4.50
2019-03-28T06:35:04.410Z,5.17
2019-03-28T06:36:09.153Z,4.80
2019-03-28T06:37:14.159Z,4.60
2019-03-28T06:38:19.071Z,4.78
2019-03-28T06:39:23.965Z,5.40
2019-03-28T06:40:28.738Z,5.42
2019-03-28T06:41:33.495Z,5.42
2019-03-28T06:42:38.338Z,5.00
2019-03-28T06:43:43.245Z,4.70
2019-03-28T06:44:48.037Z,4.55
2019-03-28T06:45:52.923Z,5.40
2019-03-28T06:46:57.761Z,5.12
2019-03-28T06:48:02.494Z,5.53
2019-03-28T06:49:07.425Z,5.35
2019-03-28T06:50:12.476Z,5.17
2019-03-28T06:51:17.354Z,4.97
2019-03-28T06:52:22.115Z,5.90
2019-03-28T06:53:26.992Z,5.00
2019-03-28T06:54:31.764Z,5.58
2019-03-28T06:55:37.112Z,5.47
2019-03-28T06:56:41.888Z,5.30
2019-03-28T06:57:46.767Z,5.35
2019-03-28T06:58:51.515Z,5.03
2019-03-28T06:59:56.431Z,4.65
2019-03-28T07:01:01.367Z,5.35
2019-03-28T07:02:06.139Z,4.85
2019-03-28T07:03:11.028Z,5.35
2019-03-28T07:04:15.787Z,4.60
2019-03-28T07:05:20.669Z,4.37
2019-03-28T07:06:25.423Z,5.55
2019-03-28T07:07:30.176Z,5.58
2019-03-28T07:08:35.093Z,4.97
2019-03-28T07:09:40.003Z,4.97
2019-03-28T07:10:44.717Z,5.30
2019-03-28T07:11:49.625Z,5.35
2019-03-28T07:12:54.401Z,5.42
2019-03-28T07:13:59.278Z,5.28
2019-03-28T07:15:04.428Z,5.12
2019-03-28T07:16:09.722Z,5.87
2019-03-28T07:17:14.629Z,5.65
2019-03-28T07:18:19.423Z,5.20
2019-03-28T07:19:24.128Z,6.15
2019-03-28T07:20:29.041Z,5.00
2019-03-28T07:21:33.943Z,5.20
2019-03-28T07:22:38.807Z,5.65
2019-03-28T07:23:43.734Z,5.30
2019-03-28T07:24:48.549Z,5.22
2019-03-28T07:25:53.229Z,5.10
2019-03-28T07:26:58.130Z,5.33
2019-03-28T07:28:06.148Z,5.37
2019-03-28T07:29:09.688Z,4.50
2019-03-28T07:30:15.335Z,4.83
2019-03-28T07:31:20.081Z,5.50
2019-03-28T07:32:24.920Z,5.33
2019-03-28T07:33:29.667Z,4.92
2019-03-28T07:34:34.433Z,5.17
2019-03-28T07:35:39.370Z,5.05
2019-03-28T07:36:44.111Z,4.90
2019-03-28T07:37:48.955Z,4.65
2019-03-28T07:38:53.824Z,4.85
2019-03-28T07:39:58.947Z,4.78
2019-03-28T07:41:03.946Z,5.25
2019-03-28T07:42:08.888Z,5.10
2019-03-28T07:43:13.803Z,5.25
2019-03-28T07:44:18.609Z,4.65
2019-03-28T07:45:23.518Z,4.45
2019-03-28T07:46:28.508Z,4.78
2019-03-28T07:47:33.419Z,4.15
2019-03-28T07:48:38.261Z,4.45
2019-03-28T07:49:43.116Z,4.85
2019-03-28T07:50:47.865Z,4.60
2019-03-28T07:51:52.689Z,4.58
2019-03-28T07:52:57.517Z,4.78
2019-03-28T07:54:02.615Z,4.90
2019-03-28T07:55:08.591Z,4.60
2019-03-28T07:56:13.379Z,4.17
2019-03-28T07:57:18.273Z,4.53
2019-03-28T07:58:23.048Z,5.00
2019-03-28T07:59:27.748Z,3.85
2019-03-28T08:00:32.557Z,4.25
2019-03-28T08:01:37.347Z,4.00
2019-03-28T08:02:42.093Z,4.55
2019-03-28T08:03:46.978Z,3.95
2019-03-28T08:04:51.876Z,4.03
2019-03-28T08:05:56.632Z,3.52
2019-03-28T08:07:01.418Z,3.50
2019-03-28T08:08:06.295Z,3.55
2019-03-28T08:09:11.759Z,3.62
2019-03-28T08:10:17.202Z,3.10
2019-03-28T08:11:21.985Z,3.58
2019-03-28T08:12:27.195Z,3.65
2019-03-28T08:13:32.013Z,3.72
2019-03-28T08:14:36.931Z,3.85
2019-03-28T08:15:41.683Z,4.00
2019-03-28T08:16:46.372Z,3.00
2019-03-28T08:17:51.159Z,3.30
2019-03-28T08:18:55.911Z,3.20
2019-03-28T08:20:00.855Z,3.33
2019-03-28T08:21:06.011Z,3.27
2019-03-28T08:22:10.761Z,3.10
2019-03-28T08:23:15.750Z,3.65
2019-03-28T08:24:20.461Z,3.50
2019-03-28T08:25:25.203Z,3.55
2019-03-28T08:26:30.511Z,3.55
2019-03-28T08:27:35.615Z,3.08
2019-03-28T08:28:40.394Z,3.22
2019-03-28T08:29:45.157Z,3.22
2019-03-28T08:30:50.030Z,2.77
2019-03-28T08:31:55.201Z,3.20
2019-03-28T08:33:00.514Z,4.20
2019-03-28T08:34:05.572Z,2.60
2019-03-28T08:35:10.788Z,3.37
2019-03-28T08:36:16.249Z,2.95
2019-03-28T08:37:21.181Z,3.55
2019-03-28T08:38:27.522Z,3.20
2019-03-28T08:39:32.262Z,3.35
2019-03-28T08:40:40.052Z,2.90
2019-03-28T08:41:44.953Z,2.80
2019-03-28T08:42:49.797Z,3.47
2019-03-28T08:43:54.694Z,3.08
2019-03-28T08:44:59.584Z,3.12
2019-03-28T08:46:04.659Z,3.10
2019-03-28T08:47:09.461Z,3.30
2019-03-28T08:48:14.157Z,3.10
2019-03-28T08:49:18.861Z,3.00
2019-03-28T08:50:23.823Z,3.47
2019-03-28T08:51:28.713Z,3.50
2019-03-28T08:52:33.615Z,3.15
2019-03-28T08:53:38.378Z,3.33
2019-03-28T08:54:43.372Z,3.37
2019-03-28T08:55:48.127Z,2.75
2019-03-28T08:56:52.859Z,3.02
2019-03-28T08:57:57.663Z,3.35
2019-03-28T08:59:02.479Z,3.65
2019-03-28T09:00:08.949Z,2.75
2019-03-28T09:01:13.836Z,2.65
2019-03-28T09:02:18.727Z,3.35
2019-03-28T09:03:23.585Z,2.80
2019-03-28T09:04:28.536Z,3.37
2019-03-28T09:05:33.266Z,2.87
2019-03-28T09:06:38.135Z,3.25
2019-03-28T09:07:42.940Z,3.08
2019-03-28T09:08:47.799Z,3.22
2019-03-28T09:09:52.634Z,3.67
2019-03-28T09:10:57.490Z,3.67
2019-03-28T09:12:02.422Z,4.03
2019-03-28T09:13:07.338Z,2.70
2019-03-28T09:14:12.246Z,3.30
2019-03-28T09:15:17.068Z,4.15
2019-03-28T09:16:21.918Z,3.80
2019-03-28T09:17:26.835Z,3.08
2019-03-28T09:18:31.531Z,3.92
2019-03-28T09:19:38.807Z,3.70
2019-03-28T09:20:42.829Z,3.00
2019-03-28T09:21:47.758Z,4.40
2019-03-28T09:22:52.677Z,4.33
2019-03-28T09:23:57.609Z,4.37
2019-03-28T09:25:02.707Z,3.87
2019-03-28T09:26:07.481Z,4.00
2019-03-28T09:27:12.358Z,3.72
2019-03-28T09:28:17.351Z,3.70
2019-03-28T09:29:22.175Z,4.20
2019-03-28T09:30:49.654Z,3.47
2019-03-28T09:31:51.833Z,3.40
2019-03-28T09:32:56.716Z,3.87
2019-03-28T09:34:01.661Z,3.85
2019-03-28T09:35:07.173Z,3.67
2019-03-28T09:36:12.104Z,3.92
2019-03-28T09:37:16.905Z,3.60
2019-03-28T09:38:21.774Z,4.03
2019-03-28T09:39:26.711Z,4.60
2019-03-28T09:40:31.487Z,4.97
2019-03-28T09:41:36.419Z,5.62
2019-03-28T09:42:41.371Z,5.17
2019-03-28T09:43:55.053Z,4.33
2019-03-28T09:44:52.842Z,3.67
2019-03-28T09:46:00.191Z,3.85
2019-03-28T09:47:04.353Z,5.05
2019-03-28T09:48:11.571Z,6.67
2019-03-28T09:49:15.730Z,5.10
2019-03-28T09:50:20.646Z,4.20
2019-03-28T09:51:25.683Z,4.22
2019-03-28T09:52:30.545Z,4.95
2019-03-28T09:53:35.385Z,4.40
2019-03-28T09:54:40.083Z,4.33
2019-03-28T09:55:45.090Z,4.60
2019-03-28T09:56:49.864Z,4.53
2019-03-28T09:57:54.603Z,3.55
2019-03-28T09:59:00.504Z,4.55
2019-03-28T10:00:06.274Z,4.62
2019-03-28T10:01:11.018Z,5.10
2019-03-28T10:02:15.959Z,5.20
2019-03-28T10:03:20.874Z,4.75
2019-03-28T10:04:25.767Z,4.53
2019-03-28T10:05:30.643Z,4.55
2019-03-28T10:06:35.664Z,4.67
2019-03-28T10:07:40.479Z,4.42
2019-03-28T10:08:45.434Z,5.22
2019-03-28T10:09:50.277Z,4.78
2019-03-28T10:10:55.277Z,4.20
2019-03-28T10:12:00.279Z,4.85
2019-03-28T10:13:05.251Z,4.40
2019-03-28T10:14:10.276Z,4.03
2019-03-28T10:15:15.227Z,4.10
2019-03-28T10:16:20.083Z,4.80
2019-03-28T10:17:24.834Z,4.15
2019-03-28T10:18:30.252Z,4.33
2019-03-28T10:19:35.224Z,4.15
2019-03-28T10:20:40.147Z,3.95
2019-03-28T10:21:44.899Z,4.40
2019-03-28T10:22:49.793Z,5.15
2019-03-28T10:23:54.661Z,4.75
2019-03-28T10:24:59.522Z,4.60
2019-03-28T10:26:04.477Z,5.97
2019-03-28T10:27:09.221Z,4.45
2019-03-28T10:28:13.963Z,3.95
2019-03-28T10:29:18.789Z,4.20
2019-03-28T10:30:38.377Z,3.50
2019-03-28T10:31:43.407Z,4.35
2019-03-28T10:32:48.201Z,4.37
2019-03-28T10:33:53.346Z,4.58
2019-03-28T10:34:58.360Z,4.10
2019-03-28T10:36:03.061Z,4.05
2019-03-28T10:37:07.937Z,3.55
2019-03-28T10:38:13.027Z,3.10
2019-03-28T10:39:17.974Z,3.90
2019-03-28T10:40:22.854Z,4.00
2019-03-28T10:41:28.767Z,4.12
2019-03-28T10:42:33.937Z,4.10
2019-03-28T10:43:38.744Z,3.22
2019-03-28T10:44:43.433Z,4.25
2019-03-28T10:45:48.222Z,3.72
2019-03-28T10:46:53.028Z,4.00
2019-03-28T10:47:57.936Z,3.22
2019-03-28T10:49:02.863Z,3.40
2019-03-28T10:50:07.959Z,3.70
2019-03-28T10:51:12.731Z,3.85
2019-03-28T10:52:17.653Z,4.55
2019-03-28T10:53:22.674Z,5.62
2019-03-28T10:54:27.570Z,5.22
2019-03-28T10:55:32.455Z,5.60
2019-03-28T10:56:50.699Z,4.95
2019-03-28T10:57:43.659Z,5.08
2019-03-28T10:58:48.639Z,4.47
2019-03-28T10:59:53.416Z,4.58
2019-03-28T11:00:58.307Z,3.90
2019-03-28T11:02:03.106Z,3.50
2019-03-28T11:03:07.915Z,3.87
2019-03-28T11:04:12.909Z,3.90
2019-03-28T11:05:17.813Z,3.92
2019-03-28T11:06:22.729Z,3.70
2019-03-28T11:07:27.614Z,4.12
2019-03-28T11:08:32.379Z,3.75
2019-03-28T11:09:37.153Z,3.25
2019-03-28T11:10:42.051Z,3.80
2019-03-28T11:11:46.879Z,5.05
2019-03-28T11:12:51.783Z,3.60
2019-03-28T11:13:56.633Z,4.15
2019-03-28T11:15:01.439Z,4.70
2019-03-28T11:16:06.149Z,4.75
2019-03-28T11:17:11.049Z,4.78
2019-03-28T11:18:15.949Z,4.62
2019-03-28T11:19:20.772Z,5.28
2019-03-28T11:20:25.703Z,4.37
2019-03-28T11:21:30.411Z,5.30
2019-03-28T11:22:35.358Z,3.40
2019-03-28T11:23:40.167Z,3.45
2019-03-28T11:24:46.417Z,3.50
2019-03-28T11:25:51.531Z,3.25
2019-03-28T11:26:56.258Z,4.00
2019-03-28T11:28:01.138Z,3.75
2019-03-28T11:29:06.022Z,3.08
2019-03-28T11:30:11.691Z,3.22
2019-03-28T11:31:17.658Z,2.65
2019-03-28T11:32:22.645Z,2.45
2019-03-28T11:33:27.515Z,1.70
2019-03-28T11:34:32.407Z,1.20
2019-03-28T11:35:37.237Z,0.98
2019-03-28T11:36:42.058Z,1.40
2019-03-28T11:37:47.047Z,1.40
2019-03-28T11:38:52.132Z,1.65
2019-03-28T11:39:56.929Z,1.72
2019-03-28T11:41:01.933Z,1.72
2019-03-28T11:42:06.713Z,1.50
2019-03-28T11:43:11.772Z,1.75
2019-03-28T11:44:16.681Z,2.12
2019-03-28T11:45:21.663Z,3.12
2019-03-28T11:46:26.503Z,4.40
2019-03-28T11:47:31.321Z,5.20
2019-03-28T11:48:36.186Z,5.00
2019-03-28T11:49:40.920Z,4.53
2019-03-28T11:50:45.977Z,4.42
2019-03-28T11:51:50.859Z,3.10
2019-03-28T11:52:55.777Z,3.33
2019-03-28T11:54:00.478Z,3.30
2019-03-28T11:55:07.092Z,2.72
2019-03-28T11:56:12.023Z,2.20
2019-03-28T11:57:16.935Z,2.55
2019-03-28T11:58:21.705Z,2.00
2019-03-28T11:59:26.672Z,3.00
2019-03-28T12:00:31.513Z,3.20
2019-03-28T12:01:36.232Z,2.75
2019-03-28T12:02:41.294Z,2.42
2019-03-28T12:03:47.012Z,3.10
2019-03-28T12:04:51.967Z,3.60
2019-03-28T12:05:56.715Z,2.98
2019-03-28T12:07:01.610Z,2.52
2019-03-28T12:08:06.541Z,2.62
2019-03-28T12:09:12.240Z,2.15
2019-03-28T12:10:17.330Z,2.65
2019-03-28T12:11:22.235Z,4.03
2019-03-28T12:12:27.025Z,3.50
2019-03-28T12:13:44.102Z,6.25
2019-03-28T12:14:38.174Z,5.37
2019-03-28T12:15:43.010Z,4.33
2019-03-28T12:16:47.997Z,3.65
2019-03-28T12:17:52.864Z,4.53
2019-03-28T12:18:57.665Z,4.25
2019-03-28T12:20:02.573Z,2.95
2019-03-28T12:21:07.338Z,3.27
2019-03-28T12:22:12.262Z,2.70
2019-03-28T12:23:17.161Z,2.85
2019-03-28T12:24:22.355Z,2.95
2019-03-28T12:25:27.276Z,2.10
2019-03-28T12:26:31.997Z,1.90
2019-03-28T12:27:36.772Z,2.25
2019-03-28T12:28:41.686Z,2.08
2019-03-28T12:29:46.585Z,2.70
2019-03-28T12:30:51.464Z,3.17
2019-03-28T12:31:56.299Z,2.85
2019-03-28T12:33:01.255Z,3.02
2019-03-28T12:34:06.148Z,3.17
2019-03-28T12:35:11.110Z,3.50
2019-03-28T12:36:15.995Z,3.65
2019-03-28T12:37:20.670Z,2.55
2019-03-28T12:38:25.455Z,3.12
2019-03-28T12:39:30.199Z,2.33
2019-03-28T12:40:34.895Z,2.83
2019-03-28T12:41:39.675Z,3.00
2019-03-28T12:42:44.474Z,4.20
2019-03-28T12:43:49.614Z,2.77
2019-03-28T12:44:57.364Z,2.75
2019-03-28T12:46:00.984Z,1.40
2019-03-28T12:47:05.819Z,2.05
2019-03-28T12:48:10.755Z,2.10
2019-03-28T12:49:15.673Z,2.08
2019-03-28T12:50:20.852Z,2.40
2019-03-28T12:51:26.518Z,2.20
2019-03-28T12:52:31.679Z,1.40
2019-03-28T12:53:36.688Z,1.10
2019-03-28T12:54:44.096Z,0.90
2019-03-28T12:55:48.113Z,1.55
2019-03-28T12:56:52.937Z,1.92
2019-03-28T12:57:57.755Z,1.50
2019-03-28T12:59:02.513Z,1.65
2019-03-28T13:00:09.265Z,1.00
2019-03-28T13:01:14.015Z,1.20
2019-03-28T13:02:28.587Z,1.27
2019-03-28T13:03:25.416Z,1.37
2019-03-28T13:04:30.249Z,1.75
2019-03-28T13:05:35.252Z,1.70
2019-03-28T13:06:40.161Z,1.62
2019-03-28T13:07:45.099Z,1.75
2019-03-28T13:08:50.008Z,2.35
2019-03-28T13:09:54.785Z,3.70
2019-03-28T13:10:59.650Z,2.42
2019-03-28T13:12:04.657Z,2.12
2019-03-28T13:13:09.515Z,2.85
2019-03-28T13:14:14.345Z,2.70
2019-03-28T13:15:19.262Z,2.20
2019-03-28T13:16:24.177Z,2.05
2019-03-28T13:17:28.936Z,1.87
2019-03-28T13:18:36.057Z,1.75
2019-03-28T13:19:40.336Z,1.75
2019-03-28T13:20:45.049Z,1.70
2019-03-28T13:21:49.949Z,1.82
2019-03-28T13:22:54.691Z,2.17
2019-03-28T13:23:59.535Z,1.95
2019-03-28T13:25:04.777Z,1.77
2019-03-28T13:26:09.598Z,1.42
2019-03-28T13:27:14.504Z,1.75
2019-03-28T13:28:19.421Z,1.92
2019-03-28T13:29:24.247Z,2.10
2019-03-28T13:30:29.046Z,2.72
2019-03-28T13:31:33.775Z,2.00
2019-03-28T13:32:42.109Z,2.02
2019-03-28T13:33:45.321Z,2.15
2019-03-28T13:34:50.114Z,2.10
2019-03-28T13:35:55.055Z,2.00
2019-03-28T13:36:59.927Z,2.25
2019-03-28T13:38:04.735Z,2.45
2019-03-28T13:39:09.807Z,2.00
2019-03-28T13:40:14.905Z,2.60
2019-03-28T13:41:19.697Z,2.50
2019-03-28T13:42:24.468Z,2.67
2019-03-28T13:43:29.419Z,2.45
2019-03-28T13:44:34.963Z,2.10
2019-03-28T13:45:40.424Z,2.87
2019-03-28T13:46:45.326Z,2.30
2019-03-28T13:47:53.876Z,1.98
2019-03-28T13:48:56.662Z,2.77
2019-03-28T13:50:01.435Z,2.42
2019-03-28T13:51:06.182Z,3.02
2019-03-28T13:52:11.004Z,2.42
2019-03-28T13:53:15.901Z,2.40
2019-03-28T13:54:23.230Z,2.30
2019-03-28T13:55:27.305Z,2.35
2019-03-28T13:56:32.055Z,2.20
2019-03-28T13:57:36.800Z,2.52
2019-03-28T13:58:41.712Z,2.80
2019-03-28T13:59:46.579Z,2.60
2019-03-28T14:00:54.277Z,2.35
2019-03-28T14:01:57.898Z,2.55
2019-03-28T14:03:02.905Z,2.65
2019-03-28T14:04:07.805Z,2.10
2019-03-28T14:05:13.143Z,2.33
2019-03-28T14:06:18.230Z,1.80
2019-03-28T14:07:23.208Z,2.25
2019-03-28T14:08:28.294Z,2.15
2019-03-28T14:09:33.031Z,2.40
2019-03-28T14:10:37.955Z,2.62
2019-03-28T14:11:42.783Z,2.80
2019-03-28T14:12:47.675Z,3.12
2019-03-28T14:13:52.603Z,3.72
2019-03-28T14:14:57.435Z,28.90
2019-03-28T14:16:02.150Z,36.75
2019-03-28T14:17:07.000Z,28.67
2019-03-28T14:18:11.977Z,37.15
2019-03-28T14:19:16.883Z,36.20
2019-03-28T14:20:22.410Z,24.67
2019-03-28T14:21:27.261Z,11.15
2019-03-28T14:22:31.983Z,7.30
2019-03-28T14:23:37.073Z,5.90
2019-03-28T14:24:41.943Z,10.63
2019-03-28T14:25:46.681Z,6.90